Flight Track Log - Related Links

Times and Time Zones

All times are in EDT time to prevent confusion due to time zone crossing. See the N775NC flight status page for this flight to view local times or setup timezone preferences in your user account.

Time Position Orientation Groundspeed Altitude Reporting Facility
EDT Latitude Longitude Course Direction KTS MPH feet Rate Location/Type
Sun 03:53:53 PM 33.6561 -84.3683 52° Northeast 443 510 2,300  Level Atlanta Center
Sun 03:54:53 PM 33.6833 -84.2883 68° East 347 399 4,400 2,400 Climbing Atlanta Center
Sun 03:55:53 PM 33.7147 -84.2036 66° East 294 338 7,100 2,250 Climbing Atlanta Center
Sun 03:56:53 PM 33.7483 -84.1189 64° Northeast 289 333 8,900 1,450 Climbing Atlanta Center
Sun 03:57:53 PM 33.7839 -84.0339 63° Northeast 289 333 10,000 1,100 Climbing Atlanta Center
Sun 03:58:53 PM 33.8192 -83.9239 69° East 323 372 11,100 1,850 Climbing Atlanta Center
Sun 03:59:00 PM 34.0905 -83.8865 52° Northeast  Level Estimated
Sun 03:59:53 PM 33.8544 -83.8111 69° East 356 410 13,700  Level Atlanta Center
Sun 04:00:53 PM 33.8961 -83.7136 63° Northeast 361 415 15,600 1,900 Climbing Atlanta Center
Sun 04:01:53 PM 33.9542 -83.6081 56° Northeast 367 422 17,500 1,750 Climbing Atlanta Center
Sun 04:02:53 PM 34.0142 -83.5000 56° Northeast 385 443 19,100 1,700 Climbing Atlanta Center
Sun 04:03:53 PM 34.0931 -83.4017 46° Northeast 390 449 20,900 1,750 Climbing Atlanta Center
Sun 04:04:53 PM 34.1656 -83.3006 49° Northeast 395 455 22,600 1,400 Climbing Atlanta Center
Sun 04:05:53 PM 34.2464 -83.1994 46° Northeast 402 463 23,700 950 Climbing Atlanta Center
Sun 04:06:53 PM 34.3250 -83.0906 49° Northeast 418 481 24,500 800 Climbing Atlanta Center
Sun 04:07:53 PM 34.4117 -82.9789 47° Northeast 437 503 25,300 850 Climbing Atlanta Center
Sun 04:08:53 PM 34.5044 -82.8517 48° Northeast 452 520 26,200 850 Climbing Atlanta Center
Sun 04:09:53 PM 34.5822 -82.7217 54° Northeast 468 539 27,000 800 Climbing Atlanta Center
Sun 04:10:53 PM 34.6603 -82.5969 53° Northeast 468 539 27,800 800 Climbing Atlanta Center
Sun 04:11:53 PM 34.7422 -82.4664 53° Northeast 474 545 28,600 600 Climbing Atlanta Center
Sun 04:12:53 PM 34.8175 -82.3283 56° Northeast 479 551 29,000 200 Climbing Atlanta Center
Sun 04:13:53 PM 34.8886 -82.1878 58° Northeast 484 557 29,000  Level Atlanta Center
Sun 04:14:53 PM 34.9700 -82.0592 52° Northeast 484 557 29,000  Level Atlanta Center
Sun 04:15:53 PM 35.0492 -81.9278 54° Northeast 478 550 29,000  Level Atlanta Center
Sun 04:16:53 PM 35.1303 -81.7964 53° Northeast 484 557 29,000  Level Atlanta Center
Sun 04:17:53 PM 35.2028 -81.6572 57° Northeast 478 550 29,000  Level Atlanta Center
Sun 04:18:53 PM 35.2731 -81.5203 58° Northeast 478 550 29,000  Level Atlanta Center
Sun 04:19:53 PM 35.3433 -81.3831 58° Northeast 478 550 29,000  Level Atlanta Center
Sun 04:20:53 PM 35.4153 -81.2458 57° Northeast 483 556 29,000  Level Atlanta Center
Sun 04:21:53 PM 35.4892 -81.1056 57° Northeast 488 562 29,000  Level Atlanta Center
Sun 04:22:53 PM 35.5653 -80.9700 55° Northeast 488 562 29,000  Level Atlanta Center
Sun 04:23:53 PM 35.6389 -80.8369 56° Northeast 478 550 29,000  Level Atlanta Center
Sun 04:24:53 PM 35.7125 -80.7011 56° Northeast 473 544 29,000  Level Atlanta Center
Sun 04:25:53 PM 35.7839 -80.5625 58° Northeast 473 544 29,000  Level Atlanta Center
Sun 04:26:53 PM 35.8442 -80.4192 63° Northeast 473 544 29,000  Level Atlanta Center
Sun 04:28:41 PM 35.9475 -80.1719 63° Northeast 474 545 29,000  Level Washington Center
Sun 04:29:43 PM 36.0197 -80.0219 59° Northeast 458 527 29,000  Level Washington Center
Sun 04:30:43 PM 36.0833 -79.8817 61° Northeast 458 527 29,000  Level Washington Center
Sun 04:31:41 PM 36.1711 -79.7578 49° Northeast 468 539 29,000  Level Washington Center
Sun 04:32:42 PM 36.2519 -79.6539 46° Northeast 468 539 29,000  Level Washington Center
Sun 04:33:43 PM 36.3442 -79.5169 50° Northeast 468 539 29,000 -50 Level Washington Center
Sun 04:34:41 PM 36.4108 -79.3936 56° Northeast 468 539 28,900 -508 Descending Washington Center
Sun 04:35:41 PM 36.4947 -79.2453 55° Northeast 468 539 28,000 -885 Descending Washington Center
Sun 04:36:43 PM 36.5739 -79.1119 53° Northeast 473 544 27,100 -1,131 Descending Washington Center
Sun 04:37:43 PM 36.6525 -78.9861 52° Northeast 473 544 25,700 -1,068 Descending Washington Center
Sun 04:38:41 PM 36.7228 -78.8569 56° Northeast 484 557 25,000 -353 Descending Washington Center
Sun 04:39:42 PM 36.8017 -78.7228 54° Northeast 484 557 25,000  Level Washington Center
Sun 04:40:43 PM 36.8800 -78.5911 53° Northeast 484 557 25,000  Level Washington Center
Sun 04:41:41 PM 36.9733 -78.4464 51° Northeast 484 557 25,000  Level Washington Center
Sun 04:42:41 PM 37.0778 -78.3461 37° Northeast 473 544 25,000  Level Washington Center
Sun 04:43:43 PM 37.1803 -78.2403 39° Northeast 468 539 25,000 -49 Level Washington Center
Sun 04:44:43 PM 37.2639 -78.1389 44° Northeast 468 539 24,900 -661 Descending Washington Center
Sun 04:45:41 PM 37.3642 -78.0297 41° Northeast 463 533 23,700 -1,361 Descending Washington Center
Sun 04:46:42 PM 37.4581 -77.9231 42° Northeast 463 533 22,200 -843 Descending Washington Center
Sun 04:47:42 PM 37.5539 -77.8186 41° Northeast 458 527 22,000 -545 Descending Washington Center
Sun 04:48:43 PM 37.6719 -77.7617 21° North 445 512 21,100 -2,168 Descending Washington Center
Sun 04:49:41 PM 37.7794 -77.6964 26° Northeast 435 501 17,700 -3,458 Descending Washington Center
Sun 04:50:41 PM 37.8786 -77.6203 31° Northeast 430 495 14,300 -3,025 Descending Washington Center
Sun 04:51:42 PM 37.9758 -77.5542 28° Northeast 409 471 11,600 -2,164 Descending Washington Center
Sun 04:52:43 PM 38.0767 -77.5094 19° North 383 441 9,900 -807 Descending Washington Center
Sun 04:53:41 PM 38.1564 -77.4692 22° Northeast 333 383 10,000 50 Climbing Washington Center
Sun 04:54:42 PM 38.2219 -77.4153 33° Northeast 294 338 10,000  Level Washington Center
Sun 04:55:42 PM 38.2972 -77.3933 13° North 271 312 10,000 -750 Level Washington Center
Sun 04:56:42 PM 38.3717 -77.4428 332° Northwest 266 306 8,500 -1,339 Descending Washington Center
Sun 04:57:43 PM 38.4483 -77.4739 342° North 272 313 7,300 -750 Descending Washington Center
Sun 04:58:42 PM 38.5256 -77.4678 North 277 319 7,000 -300 Descending Washington Center
Sun 04:59:43 PM 38.6006 -77.4672 360° North 271 312 6,700 -555 Descending Washington Center
Sun 05:00:41 PM 38.6631 -77.4689 359° North 249 287 5,900 -908 Descending Washington Center
Sun 05:01:42 PM 38.7194 -77.4647 North 220 253 4,900 -1,061 Descending Washington Center
Sun 05:03:08 PM 38.8000 -77.4667 359° North 184 212 3,300 -1,020 Descending Potomac TRACON
Sun 05:04:09 PM 38.8333 -77.4667 360° North 155 178 2,400 -942 Descending Potomac TRACON
Sun 05:05:09 PM 38.8833 -77.4667 360° North 150 173 1,400 -190 Descending Potomac TRACON
Sun 05:06:15 PM 38.9500 -77.4667 360° North 215 247 2,000 834 Climbing Potomac TRACON
Sun 05:08:16 PM 39.0333 -77.6000 309° West 262 302 4,000 956 Climbing Potomac TRACON
Sun 05:09:17 PM 38.9833 -77.6500 218° Southwest 241 277 4,900 446 Climbing Potomac TRACON
Sun 05:10:17 PM 38.9167 -77.6167 159° South 234 269 4,900  Level Potomac TRACON
Sun 05:11:17 PM 38.8667 -77.6000 165° South 231 266 4,900 48 Level Potomac TRACON
Sun 05:12:23 PM 38.7833 -77.6000 180° South 231 266 5,000 48 Climbing Potomac TRACON
Sun 05:13:23 PM 38.7333 -77.6000 180° South 207 238 5,000  Level Potomac TRACON
Sun 05:14:23 PM 38.6833 -77.5833 165° South 204 235 5,000 -50 Level Potomac TRACON
Sun 05:15:24 PM 38.6833 -77.5167 90° East 180 207 4,900  Descending Potomac TRACON
Sun 05:16:30 PM 38.7000 -77.4667 67° East 183 211 5,000 -190 Climbing Potomac TRACON
Sun 05:17:30 PM 38.7667 -77.4667 360° North 189 217 4,500 -1,045 Descending Potomac TRACON
Sun 05:18:42 PM 38.8167 -77.4667 360° North 187 215 2,700 -1,238 Descending Potomac TRACON
Sun 05:19:36 PM 38.8667 -77.4667 360° North 153 176 1,900 -895 Descending Potomac TRACON
Sun 05:20:36 PM 38.9000 -77.4667 360° North 140 161 1,000 -900 Descending Potomac TRACON

Login

Don't have an account? Register now (free) for customized features, flight alerts, and more!